Time;durP1;ratioP1;P1;durP2;ratioP2;P2;SDS_P1;SDS_P2;PMS_P1;PMS_P2;Temp;Humidity;BMP_temperature;BMP_pressure;BME280_temperature;BME280_humidity;BME280_pressure;Samples;Min_cycle;Max_cycle;Signal;HPM_P1;HPM_P2
2023/08/26 00:01:53;;;;;;;50.60;30.88;;;17.80;90.30;;;;;;5097282;28;20451;-72
2023/08/26 00:04:21;;;;;;;45.17;30.47;;;17.80;90.30;;;;;;5102371;28;21218;-72
2023/08/26 00:06:47;;;;;;;41.97;29.25;;;17.80;90.30;;;;;;5095913;28;20418;-72
2023/08/26 00:09:12;;;;;;;44.55;29.83;;;17.70;90.20;;;;;;5102728;28;20388;-72
2023/08/26 00:11:38;;;;;;;46.57;29.37;;;17.70;90.40;;;;;;5089286;28;20426;-72
2023/08/26 00:14:04;;;;;;;45.25;28.48;;;17.70;90.50;;;;;;5093791;28;20401;-72
2023/08/26 00:16:30;;;;;;;39.90;27.73;;;17.70;90.50;;;;;;5097279;28;20412;-72
2023/08/26 00:18:59;;;;;;;43.97;28.20;;;17.70;90.40;;;;;;5102102;28;20511;-72
2023/08/26 00:21:25;;;;;;;38.30;27.30;;;17.70;90.50;;;;;;5096449;28;20900;-72
2023/08/26 00:23:51;;;;;;;39.03;27.73;;;17.60;90.50;;;;;;5095201;28;20444;-72
2023/08/26 00:26:17;;;;;;;38.17;26.75;;;17.60;90.40;;;;;;5093754;28;20397;-72
2023/08/26 00:28:43;;;;;;;40.67;26.45;;;17.60;90.40;;;;;;5095538;28;20400;-72
2023/08/26 00:31:09;;;;;;;39.60;27.05;;;17.60;90.50;;;;;;5098567;28;20466;-72
2023/08/26 00:33:34;;;;;;;42.00;27.40;;;17.60;90.50;;;;;;5103224;28;20889;-72
2023/08/26 00:36:00;;;;;;;42.38;27.45;;;17.50;90.30;;;;;;5096330;28;20493;-72
2023/08/26 00:38:27;;;;;;;38.67;25.67;;;17.50;90.20;;;;;;5103089;28;20393;-72
2023/08/26 00:40:53;;;;;;;40.20;26.08;;;17.50;90.30;;;;;;5097687;28;20854;-72
2023/08/26 00:43:19;;;;;;;29.70;22.63;;;17.40;90.20;;;;;;5102080;28;20479;-72
2023/08/26 00:45:46;;;;;;;32.35;22.42;;;17.40;90.20;;;;;;5095796;28;20398;-72
2023/08/26 00:48:12;;;;;;;31.42;21.83;;;17.40;90.20;;;;;;5101172;28;20395;-72
2023/08/26 00:50:43;;;;;;;31.70;20.98;;;17.40;90.20;;;;;;5095073;28;20941;-71
2023/08/26 00:53:11;;;;;;;30.00;20.20;;;17.30;90.20;;;;;;5087027;28;20405;-71
2023/08/26 00:55:41;;;;;;;24.75;18.80;;;17.30;90.20;;;;;;5089575;28;21018;-72
2023/08/26 00:58:07;;;;;;;21.33;16.20;;;17.30;90.10;;;;;;5102531;28;20409;-71
2023/08/26 01:00:36;;;;;;;23.77;16.60;;;17.20;89.80;;;;;;5093450;28;20394;-72
2023/08/26 01:03:03;;;;;;;23.52;16.02;;;17.20;90.00;;;;;;5103988;28;20492;-72
2023/08/26 01:05:29;;;;;;;21.00;15.52;;;17.20;90.00;;;;;;5099275;28;20834;-72
2023/08/26 01:07:56;;;;;;;18.67;14.87;;;17.10;90.00;;;;;;5103944;28;20615;-72
2023/08/26 01:10:31;;;;;;;20.13;14.40;;;17.10;89.80;;;;;;5098614;28;20470;-72
2023/08/26 01:13:07;;;;;;;17.15;13.40;;;17.10;89.50;;;;;;5101832;28;20890;-72
2023/08/26 01:15:35;;;;;;;18.20;13.55;;;17.00;88.90;;;;;;5101347;28;20440;-72
2023/08/26 01:18:05;;;;;;;19.70;13.18;;;17.00;88.90;;;;;;5099969;28;20789;-71
2023/08/26 01:20:32;;;;;;;20.63;13.48;;;17.00;88.90;;;;;;5097168;28;20495;-72
2023/08/26 01:22:59;;;;;;;16.75;12.82;;;16.90;88.30;;;;;;5090619;28;20804;-72
2023/08/26 01:25:25;;;;;;;15.90;12.43;;;16.90;87.90;;;;;;5083446;28;20418;-72
2023/08/26 01:27:52;;;;;;;15.80;11.77;;;16.80;87.40;;;;;;5088433;28;20907;-72
2023/08/26 01:30:21;;;;;;;15.60;12.30;;;16.80;87.50;;;;;;5093749;28;20414;-72
2023/08/26 01:32:57;;;;;;;15.95;11.80;;;16.70;87.10;;;;;;5091083;28;20519;-72
2023/08/26 01:35:30;;;;;;;16.07;11.97;;;16.70;86.90;;;;;;5087571;28;21018;-72
2023/08/26 01:37:58;;;;;;;15.45;11.68;;;16.70;86.70;;;;;;5088916;28;20413;-72
2023/08/26 01:40:25;;;;;;;15.80;12.27;;;16.70;86.70;;;;;;5085590;28;20402;-70
2023/08/26 01:42:54;;;;;;;14.57;11.07;;;16.60;86.30;;;;;;5090160;28;20402;-70
2023/08/26 01:45:20;;;;;;;13.30;10.55;;;16.60;86.40;;;;;;5097794;28;20507;-70
2023/08/26 01:47:45;;;;;;;15.00;10.70;;;16.60;86.10;;;;;;5109045;28;20969;-70
2023/08/26 01:50:11;;;;;;;15.07;10.38;;;16.50;85.50;;;;;;5101627;28;20717;-71
2023/08/26 01:52:37;;;;;;;19.20;10.27;;;16.50;85.30;;;;;;5092011;28;20438;-71
2023/08/26 01:55:03;;;;;;;12.07;9.25;;;16.50;84.90;;;;;;5093538;28;20411;-71
2023/08/26 01:57:28;;;;;;;11.95;8.32;;;16.40;84.60;;;;;;5097820;28;20972;-71
2023/08/26 01:59:54;;;;;;;10.70;8.07;;;16.40;84.10;;;;;;5107172;28;20452;-71
2023/08/26 02:02:20;;;;;;;10.10;7.93;;;16.40;84.40;;;;;;5090817;28;20404;-71
2023/08/26 02:04:45;;;;;;;9.50;7.40;;;16.40;83.80;;;;;;5107515;28;20487;-71
2023/08/26 02:07:12;;;;;;;11.57;7.97;;;16.30;83.70;;;;;;5108942;28;20396;-71
2023/08/26 02:09:37;;;;;;;9.95;7.38;;;16.30;84.00;;;;;;5098175;28;20425;-71
2023/08/26 02:12:03;;;;;;;13.00;7.57;;;16.30;83.70;;;;;;5105537;28;20424;-71
2023/08/26 02:14:29;;;;;;;9.32;6.57;;;16.30;83.70;;;;;;5099009;28;20466;-71
2023/08/26 02:16:54;;;;;;;10.33;6.50;;;16.30;83.50;;;;;;5088748;28;20398;-71
2023/08/26 02:19:20;;;;;;;10.57;6.88;;;16.30;83.40;;;;;;5089414;28;20445;-71
2023/08/26 02:21:45;;;;;;;8.90;5.77;;;16.30;83.30;;;;;;5088475;28;20948;-71
2023/08/26 02:24:11;;;;;;;7.88;5.93;;;16.30;82.50;;;;;;5087773;28;20394;-71
2023/08/26 02:26:37;;;;;;;9.93;6.23;;;16.30;82.10;;;;;;5089258;28;20430;-71
2023/08/26 02:29:03;;;;;;;11.27;5.90;;;16.20;81.80;;;;;;5087932;28;20485;-71
2023/08/26 02:31:29;;;;;;;8.15;5.32;;;16.20;81.20;;;;;;5088201;28;20429;-71
2023/08/26 02:33:54;;;;;;;7.67;5.10;;;16.20;80.40;;;;;;5088752;28;20402;-71
2023/08/26 02:36:20;;;;;;;7.90;5.47;;;16.10;79.70;;;;;;5101159;28;20412;-71
2023/08/26 02:38:46;;;;;;;8.80;5.20;;;16.00;79.50;;;;;;5097687;28;20408;-72
2023/08/26 02:41:11;;;;;;;8.68;5.50;;;16.00;79.40;;;;;;5093403;28;20401;-71
2023/08/26 02:43:37;;;;;;;8.03;5.40;;;16.00;79.30;;;;;;5099064;28;20767;-71
2023/08/26 02:46:02;;;;;;;10.13;5.70;;;15.90;79.40;;;;;;5089499;28;20409;-70
2023/08/26 02:48:29;;;;;;;7.83;5.60;;;15.80;79.30;;;;;;5089507;28;20406;-72
2023/08/26 02:50:59;;;;;;;8.77;5.33;;;15.80;79.20;;;;;;5089194;28;20508;-71
2023/08/26 02:53:26;;;;;;;10.23;4.70;;;15.80;79.10;;;;;;5088818;28;20410;-71
2023/08/26 02:55:52;;;;;;;9.00;5.15;;;15.70;78.60;;;;;;5101319;28;20733;-71
2023/08/26 02:58:18;;;;;;;8.55;5.30;;;15.60;78.50;;;;;;5099083;28;20397;-71
2023/08/26 03:00:44;;;;;;;9.40;5.57;;;15.60;78.50;;;;;;5107949;28;20933;-71
2023/08/26 03:03:10;;;;;;;7.90;5.43;;;15.50;78.70;;;;;;5108408;28;20404;-71
2023/08/26 03:05:35;;;;;;;8.93;5.00;;;15.50;78.80;;;;;;5103394;28;20765;-71
2023/08/26 03:08:02;;;;;;;6.60;4.77;;;15.40;78.70;;;;;;5098636;28;20404;-71
2023/08/26 03:10:28;;;;;;;7.50;5.13;;;15.40;78.80;;;;;;5079274;28;20417;-71
2023/08/26 03:12:56;;;;;;;11.93;5.80;;;15.40;78.70;;;;;;5095764;28;20524;-71
2023/08/26 03:15:22;;;;;;;6.95;5.18;;;15.30;79.00;;;;;;5090858;28;20459;-71
2023/08/26 03:17:48;;;;;;;7.77;5.40;;;15.30;78.70;;;;;;5089807;28;20398;-70
2023/08/26 03:20:14;;;;;;;7.33;5.03;;;15.30;78.80;;;;;;5095771;28;20402;-70
2023/08/26 03:22:39;;;;;;;9.25;5.43;;;15.30;78.90;;;;;;5095082;28;20410;-71
2023/08/26 03:25:05;;;;;;;8.35;4.70;;;15.20;78.60;;;;;;5094962;28;20957;-71
2023/08/26 03:27:31;;;;;;;8.77;5.10;;;15.20;78.00;;;;;;5089437;28;20505;-71
2023/08/26 03:29:56;;;;;;;9.50;4.97;;;15.10;78.10;;;;;;5093360;28;20406;-70
2023/08/26 03:32:22;;;;;;;7.40;5.07;;;15.10;77.70;;;;;;5092497;28;20465;-71
2023/08/26 03:34:48;;;;;;;7.57;4.77;;;15.10;77.90;;;;;;5093560;28;20481;-71
2023/08/26 03:37:14;;;;;;;7.07;4.57;;;15.10;78.00;;;;;;5092102;28;20410;-71
2023/08/26 03:39:40;;;;;;;8.90;4.97;;;15.00;78.00;;;;;;5093944;28;20948;-71
2023/08/26 03:42:06;;;;;;;6.68;4.50;;;15.00;77.70;;;;;;5088039;28;20406;-71
2023/08/26 03:44:31;;;;;;;7.07;4.20;;;15.00;78.20;;;;;;5093740;28;20433;-71
2023/08/26 03:46:57;;;;;;;7.88;4.20;;;14.90;77.40;;;;;;5091749;28;20525;-71
2023/08/26 03:49:22;;;;;;;6.77;4.23;;;14.80;77.20;;;;;;5093800;28;20417;-71
2023/08/26 03:51:48;;;;;;;7.50;4.30;;;14.80;77.00;;;;;;5091301;28;20433;-71
2023/08/26 03:54:14;;;;;;;9.43;4.50;;;14.80;76.80;;;;;;5093685;28;20969;-71
2023/08/26 03:56:39;;;;;;;8.73;4.43;;;14.80;76.70;;;;;;5091057;28;20766;-72
2023/08/26 03:59:05;;;;;;;7.30;4.60;;;14.70;76.40;;;;;;5075056;28;20441;-71
2023/08/26 04:01:31;;;;;;;8.43;4.50;;;14.70;76.40;;;;;;5090136;28;20451;-71
2023/08/26 04:03:57;;;;;;;5.40;4.13;;;14.70;76.20;;;;;;5092420;28;20398;-71
2023/08/26 04:06:23;;;;;;;8.43;4.77;;;14.70;76.20;;;;;;5090382;28;20860;-71
2023/08/26 04:08:48;;;;;;;6.57;4.32;;;14.70;76.00;;;;;;5091269;28;20519;-71
2023/08/26 04:11:16;;;;;;;8.48;4.55;;;14.70;76.00;;;;;;5090528;28;20475;-71
2023/08/26 04:13:42;;;;;;;7.35;4.88;;;14.60;75.60;;;;;;5097995;28;20428;-71
2023/08/26 04:16:08;;;;;;;7.70;5.07;;;14.60;76.00;;;;;;5104354;28;20396;-71
2023/08/26 04:18:34;;;;;;;6.85;4.57;;;14.60;76.00;;;;;;5100337;28;20482;-71
2023/08/26 04:20:59;;;;;;;8.73;5.03;;;14.50;76.10;;;;;;5103828;28;20416;-71
2023/08/26 04:23:25;;;;;;;8.73;5.13;;;14.50;76.40;;;;;;5090404;28;20417;-71
2023/08/26 04:25:54;;;;;;;8.40;5.18;;;14.50;76.50;;;;;;5104307;28;20425;-71
2023/08/26 04:28:19;;;;;;;8.23;5.00;;;14.50;76.80;;;;;;5097409;28;20409;-71
2023/08/26 04:30:45;;;;;;;7.05;5.32;;;14.50;77.00;;;;;;5087869;28;20483;-71
2023/08/26 04:33:11;;;;;;;7.50;4.93;;;14.40;77.00;;;;;;5102269;28;20429;-71
2023/08/26 04:35:37;;;;;;;7.78;4.97;;;14.40;77.10;;;;;;5106591;28;20989;-71
2023/08/26 04:38:03;;;;;;;6.53;5.07;;;14.40;77.10;;;;;;5101678;28;20968;-71
2023/08/26 04:40:29;;;;;;;8.77;5.00;;;14.40;77.20;;;;;;5106145;28;20954;-72
2023/08/26 04:42:56;;;;;;;8.33;5.00;;;14.40;77.60;;;;;;5099743;28;20402;-71
2023/08/26 04:45:22;;;;;;;10.15;5.78;;;14.50;78.10;;;;;;5101609;28;20403;-71
2023/08/26 04:47:48;;;;;;;7.57;5.10;;;14.50;78.10;;;;;;5107073;27;20405;-71
2023/08/26 04:50:14;;;;;;;7.10;5.50;;;14.50;79.00;;;;;;5102590;28;20453;-70
2023/08/26 04:52:40;;;;;;;7.90;5.80;;;14.50;78.30;;;;;;5106046;28;20434;-70
2023/08/26 04:55:10;;;;;;;9.27;5.70;;;14.50;78.70;;;;;;5090956;28;20741;-71
2023/08/26 04:57:36;;;;;;;8.20;6.10;;;14.50;78.70;;;;;;5091249;28;20402;-71
2023/08/26 05:00:06;;;;;;;8.30;5.80;;;14.50;79.10;;;;;;5090781;28;20450;-71
2023/08/26 05:02:31;;;;;;;10.98;6.25;;;14.50;79.30;;;;;;5095093;28;20453;-69
2023/08/26 05:04:58;;;;;;;10.73;5.88;;;14.60;79.90;;;;;;5110621;28;20397;-70
2023/08/26 05:07:24;;;;;;;11.53;6.17;;;14.60;80.20;;;;;;5096702;28;20404;-71
2023/08/26 05:09:49;;;;;;;9.07;6.30;;;14.70;80.60;;;;;;5110497;28;20411;-71
2023/08/26 05:12:15;;;;;;;8.27;5.70;;;14.70;80.80;;;;;;5109366;28;20424;-71
2023/08/26 05:14:41;;;;;;;10.20;5.70;;;14.80;80.10;;;;;;5110788;28;20391;-71
2023/08/26 05:17:07;;;;;;;7.88;5.82;;;14.80;80.10;;;;;;5109639;28;20396;-71
2023/08/26 05:19:32;;;;;;;7.20;5.60;;;14.80;80.50;;;;;;5109947;28;20408;-71
2023/08/26 05:21:58;;;;;;;7.68;5.15;;;14.90;80.90;;;;;;5108591;28;20819;-71
2023/08/26 05:24:23;;;;;;;7.53;5.57;;;14.90;80.90;;;;;;5109911;28;20404;-71
2023/08/26 05:26:49;;;;;;;7.32;5.45;;;15.00;80.90;;;;;;5107091;28;20837;-72
2023/08/26 05:29:15;;;;;;;9.47;5.87;;;15.10;81.10;;;;;;5109818;28;20400;-71
2023/08/26 05:31:40;;;;;;;9.70;6.70;;;15.10;81.10;;;;;;5108462;28;20996;-71
2023/08/26 05:34:06;;;;;;;9.38;5.85;;;15.20;81.50;;;;;;5108460;28;20593;-72
2023/08/26 05:36:31;;;;;;;9.03;6.40;;;15.30;81.70;;;;;;5106534;28;20392;-71
2023/08/26 05:38:57;;;;;;;8.00;5.90;;;15.30;81.60;;;;;;5108764;27;20839;-71
2023/08/26 05:41:23;;;;;;;8.33;5.70;;;15.40;80.90;;;;;;5102396;28;20995;-72
2023/08/26 05:43:49;;;;;;;8.68;5.80;;;15.40;80.80;;;;;;5071817;28;20409;-71
2023/08/26 05:46:15;;;;;;;9.07;6.30;;;15.40;80.50;;;;;;5090195;28;20504;-72
2023/08/26 05:48:41;;;;;;;7.57;5.90;;;15.50;80.80;;;;;;5089770;28;20402;-72
2023/08/26 05:51:07;;;;;;;9.10;5.75;;;15.60;81.10;;;;;;5089672;28;20971;-71
2023/08/26 05:53:32;;;;;;;10.23;5.73;;;15.70;81.20;;;;;;5089857;28;20401;-71
2023/08/26 05:55:58;;;;;;;8.52;5.10;;;15.80;80.90;;;;;;5089289;28;20398;-72
2023/08/26 05:58:24;;;;;;;8.40;5.53;;;15.80;80.30;;;;;;5090013;28;20434;-71
2023/08/26 06:00:50;;;;;;;7.87;5.00;;;15.90;80.00;;;;;;5090092;28;20414;-71
2023/08/26 06:03:16;;;;;;;7.43;5.20;;;16.00;78.80;;;;;;5100576;28;20403;-71
2023/08/26 06:05:41;;;;;;;7.00;4.88;;;16.00;78.60;;;;;;5095654;28;20397;-71
2023/08/26 06:08:07;;;;;;;7.33;4.80;;;16.00;78.70;;;;;;5109450;28;20415;-71
2023/08/26 06:10:33;;;;;;;7.53;4.85;;;16.10;78.20;;;;;;5108056;28;20395;-72
2023/08/26 06:12:59;;;;;;;8.20;4.70;;;16.10;78.40;;;;;;5109595;28;20439;-71
2023/08/26 06:15:24;;;;;;;5.78;4.13;;;16.10;77.90;;;;;;5094304;28;20426;-72
2023/08/26 06:17:50;;;;;;;7.60;4.15;;;16.20;77.40;;;;;;5107082;28;20404;-71
2023/08/26 06:20:16;;;;;;;6.33;3.90;;;16.20;77.40;;;;;;5088978;28;20409;-71
2023/08/26 06:22:42;;;;;;;6.05;3.95;;;16.20;77.20;;;;;;5107734;27;20446;-71
2023/08/26 06:25:08;;;;;;;6.17;3.93;;;16.20;77.20;;;;;;5094274;28;20402;-72
2023/08/26 06:27:34;;;;;;;5.85;3.88;;;16.30;77.60;;;;;;5106798;28;20430;-71
2023/08/26 06:30:03;;;;;;;7.30;3.80;;;16.40;77.80;;;;;;5104837;28;20529;-72
2023/08/26 06:32:28;;;;;;;6.40;3.60;;;16.40;77.10;;;;;;5107666;28;20500;-72
2023/08/26 06:34:54;;;;;;;6.80;3.30;;;16.40;77.40;;;;;;5103918;28;20406;-71
2023/08/26 06:37:20;;;;;;;7.55;4.03;;;16.50;77.20;;;;;;5106766;28;20758;-71
2023/08/26 06:39:45;;;;;;;8.17;4.40;;;16.50;76.50;;;;;;5101891;28;20485;-72
2023/08/26 06:42:11;;;;;;;7.22;3.97;;;16.50;76.40;;;;;;5096337;28;20495;-72
2023/08/26 06:44:37;;;;;;;7.33;4.37;;;16.50;76.60;;;;;;5095294;28;20400;-72
2023/08/26 06:47:02;;;;;;;6.82;3.90;;;16.60;76.50;;;;;;5109060;28;20400;-72
2023/08/26 06:49:28;;;;;;;6.78;4.25;;;16.60;76.50;;;;;;5094114;28;20740;-72
2023/08/26 06:51:54;;;;;;;9.07;4.60;;;16.70;77.10;;;;;;5097424;28;20538;-72
2023/08/26 06:54:19;;;;;;;7.20;4.53;;;16.70;76.90;;;;;;5088594;28;20402;-71
2023/08/26 06:56:45;;;;;;;6.40;4.50;;;16.80;76.80;;;;;;5097616;28;20469;-71
2023/08/26 06:59:11;;;;;;;7.77;5.07;;;16.80;76.30;;;;;;5107690;28;20408;-71
2023/08/26 07:01:37;;;;;;;7.68;5.07;;;16.80;76.80;;;;;;5108740;28;20450;-72
2023/08/26 07:04:06;;;;;;;7.65;5.13;;;16.90;76.60;;;;;;5104069;28;20405;-72
2023/08/26 07:06:33;;;;;;;6.82;4.45;;;16.90;76.60;;;;;;5087081;28;20569;-72
2023/08/26 07:08:59;;;;;;;7.37;4.07;;;16.80;75.60;;;;;;5092627;28;20431;-72
2023/08/26 07:11:24;;;;;;;6.55;3.90;;;16.80;75.10;;;;;;5096722;28;20454;-72
2023/08/26 07:13:50;;;;;;;6.78;3.60;;;16.80;75.60;;;;;;5100517;28;20762;-72
2023/08/26 07:16:15;;;;;;;5.97;3.60;;;16.80;75.30;;;;;;5099154;28;20407;-72
2023/08/26 07:18:41;;;;;;;4.97;3.50;;;16.80;74.90;;;;;;5105713;28;20396;-72
2023/08/26 07:21:07;;;;;;;6.72;3.40;;;16.80;74.50;;;;;;5106752;28;20404;-72
2023/08/26 07:23:32;;;;;;;6.07;3.20;;;16.80;74.10;;;;;;5092714;28;20502;-71
2023/08/26 07:25:58;;;;;;;5.55;3.00;;;16.80;74.60;;;;;;5107338;28;20483;-71
2023/08/26 07:28:24;;;;;;;4.70;3.00;;;16.80;73.70;;;;;;5105476;28;20792;-72
2023/08/26 07:30:51;;;;;;;4.40;3.20;;;16.90;72.80;;;;;;5106620;28;20440;-72
2023/08/26 07:33:17;;;;;;;5.88;2.90;;;17.00;73.80;;;;;;5103565;28;20392;-71
2023/08/26 07:35:43;;;;;;;5.93;2.72;;;17.00;73.50;;;;;;5106505;28;20492;-72
2023/08/26 07:38:08;;;;;;;3.53;2.63;;;17.00;72.30;;;;;;5103042;28;20449;-72
2023/08/26 07:40:34;;;;;;;4.28;2.50;;;17.10;71.80;;;;;;5093545;28;20466;-72
2023/08/26 07:43:00;;;;;;;3.95;2.70;;;17.10;69.50;;;;;;5085829;28;20409;-72
2023/08/26 07:45:26;;;;;;;5.67;2.50;;;17.10;69.30;;;;;;5086409;28;20406;-73
2023/08/26 07:47:52;;;;;;;5.05;2.80;;;17.20;68.70;;;;;;5086459;28;20405;-74
2023/08/26 07:50:17;;;;;;;4.60;2.40;;;17.20;67.60;;;;;;5089129;28;20924;-72
2023/08/26 07:52:44;;;;;;;3.73;2.50;;;17.20;65.00;;;;;;5088157;28;20785;-72
2023/08/26 07:55:09;;;;;;;3.60;2.40;;;17.20;66.70;;;;;;5087087;28;20487;-73
2023/08/26 07:57:35;;;;;;;5.57;2.53;;;17.30;64.90;;;;;;5086709;28;20809;-73
2023/08/26 08:00:02;;;;;;;4.70;2.33;;;17.30;64.10;;;;;;5087352;28;20459;-73
2023/08/26 08:02:29;;;;;;;3.78;2.40;;;17.30;62.80;;;;;;5087670;28;20437;-73
2023/08/26 08:04:55;;;;;;;4.25;2.45;;;17.30;61.50;;;;;;5087123;28;20421;-73
2023/08/26 08:07:20;;;;;;;7.17;2.90;;;17.40;61.80;;;;;;5097724;28;20460;-73
2023/08/26 08:09:46;;;;;;;5.18;2.95;;;17.40;62.80;;;;;;5093309;28;20410;-73
2023/08/26 08:12:14;;;;;;;4.27;3.20;;;17.60;62.90;;;;;;5095020;28;20456;-73
2023/08/26 08:14:40;;;;;;;6.77;3.70;;;17.60;61.80;;;;;;5093527;28;20421;-73
2023/08/26 08:17:06;;;;;;;6.45;4.50;;;17.60;60.90;;;;;;5095982;28;20419;-73
2023/08/26 08:19:37;;;;;;;6.00;4.30;;;17.60;61.30;;;;;;5093960;28;20401;-73
2023/08/26 08:22:03;;;;;;;7.30;5.03;;;17.60;62.90;;;;;;5095741;28;20408;-73
2023/08/26 08:24:28;;;;;;;9.77;5.50;;;17.80;63.80;;;;;;5093359;28;20958;-73
2023/08/26 08:26:54;;;;;;;10.77;7.25;;;17.90;65.30;;;;;;5095394;28;20396;-73
2023/08/26 08:29:20;;;;;;;10.83;8.73;;;18.00;64.50;;;;;;5092327;28;20482;-73
2023/08/26 08:31:45;;;;;;;14.13;9.70;;;18.10;62.40;;;;;;5091126;28;20424;-73
2023/08/26 08:34:11;;;;;;;12.87;10.37;;;18.10;61.10;;;;;;5090573;28;20409;-73
2023/08/26 08:36:37;;;;;;;14.63;11.43;;;18.10;61.90;;;;;;5087519;28;20442;-73
2023/08/26 08:39:03;;;;;;;16.23;13.10;;;18.20;61.80;;;;;;5092168;28;20398;-73
2023/08/26 08:41:31;;;;;;;18.05;13.85;;;18.20;62.50;;;;;;5091556;28;20417;-73
2023/08/26 08:44:01;;;;;;;20.23;15.48;;;18.30;63.90;;;;;;5089557;28;20421;-73
2023/08/26 08:46:27;;;;;;;19.48;15.60;;;18.40;62.80;;;;;;5089665;28;20413;-73
2023/08/26 08:48:53;;;;;;;20.38;16.38;;;18.40;59.30;;;;;;5089574;28;20402;-73
2023/08/26 08:51:20;;;;;;;20.50;16.40;;;18.40;60.00;;;;;;5095715;28;20412;-73
2023/08/26 08:53:47;;;;;;;23.93;17.43;;;18.30;59.70;;;;;;5091970;28;20409;-73
2023/08/26 08:56:16;;;;;;;21.08;17.67;;;18.30;59.80;;;;;;5084547;28;20467;-73
2023/08/26 08:58:51;;;;;;;18.65;16.35;;;18.40;59.80;;;;;;5104421;28;20437;-73
2023/08/26 09:01:19;;;;;;;18.37;15.93;;;18.40;57.40;;;;;;5085718;28;20959;-73
2023/08/26 09:03:47;;;;;;;18.90;16.02;;;18.50;58.20;;;;;;5094040;28;20845;-73
2023/08/26 09:06:13;;;;;;;19.45;16.05;;;18.50;58.50;;;;;;5092638;28;20936;-73
2023/08/26 09:08:39;;;;;;;18.92;16.13;;;18.70;57.50;;;;;;5083395;28;20446;-74
2023/08/26 09:11:05;;;;;;;19.00;16.17;;;18.70;53.60;;;;;;5089823;28;20442;-74
2023/08/26 09:13:31;;;;;;;19.23;15.35;;;18.80;53.80;;;;;;5089900;28;20903;-74
2023/08/26 09:15:57;;;;;;;16.85;14.95;;;18.90;55.90;;;;;;5095708;28;20409;-73
2023/08/26 09:18:23;;;;;;;21.30;15.67;;;19.10;57.00;;;;;;5087600;28;20409;-72
2023/08/26 09:20:49;;;;;;;19.42;14.95;;;19.30;57.60;;;;;;5101525;28;20445;-72
2023/08/26 09:23:14;;;;;;;17.35;14.18;;;19.60;52.20;;;;;;5104900;28;20762;-72
2023/08/26 09:25:52;;;;;;;14.83;13.23;;;19.90;57.30;;;;;;5089784;28;20543;-72
2023/08/26 09:28:18;;;;;;;15.60;12.90;;;20.60;50.00;;;;;;5089207;28;21053;-73
2023/08/26 09:31:07;;;;;;;18.50;14.32;;;20.80;36.30;;;;;;5088886;28;21014;-72
2023/08/26 09:33:33;;;;;;;14.75;13.35;;;20.90;31.30;;;;;;5087262;28;20433;-72
2023/08/26 09:35:59;;;;;;;13.75;11.82;;;20.90;27.90;;;;;;5088683;28;20404;-72
2023/08/26 09:38:25;;;;;;;14.55;12.45;;;21.20;26.60;;;;;;5093041;28;20499;-70
2023/08/26 09:40:59;;;;;;;15.40;12.23;;;21.40;22.10;;;;;;5088775;28;20406;-70
2023/08/26 09:43:25;;;;;;;14.32;12.38;;;21.70;23.30;;;;;;5088942;28;20887;-71
2023/08/26 09:45:55;;;;;;;14.82;12.18;;;21.80;14.70;;;;;;5088406;28;20460;-72
2023/08/26 09:48:22;;;;;;;13.63;10.82;;;21.70;14.40;;;;;;5092776;28;20449;-72
2023/08/26 09:50:48;;;;;;;12.85;10.20;;;21.80;16.90;;;;;;5089379;28;20417;-73
2023/08/26 09:53:32;;;;;;;11.33;8.97;;;22.20;22.10;;;;;;5091215;28;20430;-73
2023/08/26 09:55:58;;;;;;;9.57;8.57;;;22.80;19.50;;;;;;5083472;28;20418;-73
2023/08/26 09:58:24;;;;;;;9.32;7.60;;;23.40;1.00;;;;;;5103330;28;20909;-73
2023/08/26 10:00:52;;;;;;;11.65;8.05;;;23.30;1.00;;;;;;5098437;28;20402;-73
2023/08/26 10:03:22;;;;;;;8.82;6.75;;;23.00;1.00;;;;;;5090187;28;20415;-73
2023/08/26 10:05:50;;;;;;;8.93;6.77;;;23.20;1.00;;;;;;5088859;28;20480;-73
2023/08/26 10:08:18;;;;;;;7.60;6.13;;;23.40;1.00;;;;;;5088407;28;20404;-74
2023/08/26 10:10:50;;;;;;;6.60;4.90;;;23.20;1.00;;;;;;5089069;28;20458;-74
2023/08/26 10:13:21;;;;;;;7.05;5.32;;;23.60;1.00;;;;;;5087131;28;20406;-74
2023/08/26 10:15:50;;;;;;;8.43;5.65;;;23.80;1.00;;;;;;5076294;28;20933;-73
2023/08/26 10:18:24;;;;;;;6.93;5.25;;;24.00;1.00;;;;;;5075327;28;20402;-73
2023/08/26 10:20:51;;;;;;;7.18;4.65;;;24.30;1.00;;;;;;5087885;28;20406;-73
2023/08/26 10:23:17;;;;;;;6.87;4.37;;;24.60;1.00;;;;;;5088244;28;20481;-73
2023/08/26 10:25:43;;;;;;;8.52;4.70;;;24.80;1.00;;;;;;5087963;28;20794;-73
2023/08/26 10:28:11;;;;;;;6.80;4.00;;;24.70;1.00;;;;;;5088096;28;20517;-73
2023/08/26 10:30:37;;;;;;;6.93;3.73;;;24.40;1.00;;;;;;5088586;28;20413;-73
2023/08/26 10:33:04;;;;;;;7.10;4.15;;;24.40;1.00;;;;;;5087527;28;21502;-73
2023/08/26 10:35:30;;;;;;;5.32;3.78;;;24.90;1.00;;;;;;5088595;28;20418;-73
2023/08/26 10:38:08;;;;;;;7.95;4.25;;;25.60;1.00;;;;;;5088675;28;20398;-73
2023/08/26 10:40:34;;;;;;;6.10;4.13;;;26.00;1.00;;;;;;5087655;28;20417;-73
2023/08/26 10:43:06;;;;;;;7.18;4.32;;;25.50;1.00;;;;;;5087794;28;20481;-73
2023/08/26 10:45:32;;;;;;;7.55;4.00;;;24.90;1.00;;;;;;5092286;28;20924;-73
2023/08/26 10:48:00;;;;;;;7.70;4.80;;;24.10;1.00;;;;;;5095402;28;20413;-73
2023/08/26 10:50:27;;;;;;;8.65;4.82;;;23.50;1.00;;;;;;5092474;28;20415;-73
2023/08/26 10:52:58;;;;;;;6.38;4.40;;;22.90;1.00;;;;;;5100306;28;20428;-73
2023/08/26 10:55:25;;;;;;;7.68;5.53;;;22.40;1.00;;;;;;5105293;28;20413;-73
2023/08/26 10:58:06;;;;;;;8.38;5.00;;;22.00;1.00;;;;;;5100274;28;20420;-76
2023/08/26 11:00:32;;;;;;;3.97;1.80;;;21.70;1.00;;;;;;5102685;28;20789;-72
2023/08/26 11:03:00;;;;;;;9.43;2.60;;;21.00;1.00;;;;;;5091814;28;20765;-73
2023/08/26 11:05:25;;;;;;;14.67;3.43;;;20.40;1.00;;;;;;5087391;28;20479;-73
2023/08/26 11:07:51;;;;;;;8.38;1.80;;;19.30;1.00;;;;;;5088135;28;20402;-73
2023/08/26 11:10:30;;;;;;;6.23;1.10;;;18.10;1.00;;;;;;5087580;28;20402;-73
2023/08/26 11:12:56;;;;;;;4.28;0.70;;;17.10;1.00;;;;;;5087276;28;20429;-73
2023/08/26 11:15:22;;;;;;;3.10;0.50;;;16.50;5.20;;;;;;5086943;28;20527;-72
2023/08/26 11:17:49;;;;;;;2.58;0.40;;;16.10;13.00;;;;;;5089804;28;20404;-72
2023/08/26 11:20:18;;;;;;;3.10;0.37;;;16.00;18.50;;;;;;5101158;27;20411;-72
2023/08/26 11:22:46;;;;;;;1.90;0.50;;;15.90;24.70;;;;;;5089788;28;20402;-72
2023/08/26 11:25:16;;;;;;;2.42;0.32;;;16.00;31.00;;;;;;5087419;28;20465;-72
2023/08/26 11:27:42;;;;;;;1.33;0.30;;;16.20;33.80;;;;;;5090577;28;20397;-72
2023/08/26 11:30:10;;;;;;;2.88;0.47;;;16.60;42.00;;;;;;5105403;28;20416;-72
2023/08/26 11:32:37;;;;;;;1.50;0.50;;;17.00;43.40;;;;;;5091612;28;20432;-73
2023/08/26 11:35:07;;;;;;;1.90;0.38;;;17.50;41.80;;;;;;5094749;28;21067;-74
2023/08/26 11:37:40;;;;;;;2.25;0.30;;;18.10;47.10;;;;;;5083423;28;20413;-73
2023/08/26 11:40:06;;;;;;;2.00;0.40;;;19.00;47.90;;;;;;5085950;28;20449;-73
2023/08/26 11:42:32;;;;;;;1.15;0.30;;;19.90;30.20;;;;;;5087166;28;20441;-74
2023/08/26 11:44:57;;;;;;;1.92;0.40;;;20.50;20.70;;;;;;5083199;28;20483;-73
2023/08/26 11:47:24;;;;;;;1.13;0.40;;;21.10;24.40;;;;;;5083759;28;20409;-72
2023/08/26 11:49:56;;;;;;;1.65;0.38;;;21.70;16.90;;;;;;5089507;28;20883;-73
2023/08/26 11:52:30;;;;;;;1.47;0.30;;;21.80;2.00;;;;;;5089344;28;20439;-72
2023/08/26 11:54:55;;;;;;;2.15;0.40;;;21.80;4.70;;;;;;5081899;28;20428;-72
2023/08/26 11:57:23;;;;;;;1.57;0.40;;;22.20;9.90;;;;;;5082791;28;20411;-72
2023/08/26 11:59:49;;;;;;;2.00;0.47;;;22.80;7.60;;;;;;5077883;28;20403;-73
2023/08/26 12:02:22;;;;;;;2.08;0.60;;;23.20;1.00;;;;;;5075152;28;20423;-72
2023/08/26 12:04:58;;;;;;;2.83;0.90;;;23.50;1.00;;;;;;5096178;28;20429;-72
2023/08/26 12:07:24;;;;;;;2.50;1.00;;;23.40;1.00;;;;;;5086400;28;20804;-72
2023/08/26 12:09:50;;;;;;;3.42;1.38;;;23.00;1.00;;;;;;5086676;28;20429;-72
2023/08/26 12:12:23;;;;;;;3.67;1.60;;;23.00;1.00;;;;;;5106399;28;20463;-72
2023/08/26 12:14:49;;;;;;;3.42;1.55;;;23.30;1.00;;;;;;5086863;28;20410;-69
2023/08/26 12:17:15;;;;;;;3.83;1.70;;;23.60;1.00;;;;;;5096448;28;20407;-72
2023/08/26 12:19:41;;;;;;;4.37;2.07;;;24.00;1.00;;;;;;5093740;28;20415;-72
2023/08/26 12:22:08;;;;;;;5.00;2.10;;;24.40;1.00;;;;;;5088027;28;21113;-72
2023/08/26 12:24:38;;;;;;;6.15;2.75;;;24.50;1.00;;;;;;5098505;28;20918;-72
2023/08/26 12:27:10;;;;;;;5.10;2.53;;;24.30;1.00;;;;;;5106881;28;20450;-72
2023/08/26 12:29:37;;;;;;;4.18;2.90;;;23.70;1.00;;;;;;5105034;28;20400;-72
2023/08/26 12:32:04;;;;;;;6.40;2.92;;;23.10;1.00;;;;;;5102807;28;20427;-71
2023/08/26 12:34:30;;;;;;;6.95;3.30;;;22.80;1.00;;;;;;5101265;28;20408;-72
2023/08/26 12:36:56;;;;;;;7.20;3.60;;;22.50;1.00;;;;;;5105146;28;20396;-72
2023/08/26 12:39:25;;;;;;;7.32;3.83;;;22.30;1.00;;;;;;5094293;28;20476;-72
2023/08/26 12:41:52;;;;;;;6.18;3.90;;;22.10;1.00;;;;;;5086285;28;20405;-72